createdAt,value
2023-04-16T00:12:17.941Z,22
2023-04-16T00:40:50.323Z,20
2023-04-16T01:09:37.817Z,17
2023-04-16T01:38:21.971Z,16
2023-04-16T02:07:05.452Z,19
2023-04-16T02:35:50.346Z,20
2023-04-16T03:04:34.092Z,20
2023-04-16T03:33:06.874Z,19
2023-04-16T04:01:54.920Z,17
2023-04-16T04:30:32.328Z,16
2023-04-16T04:59:16.348Z,16
2023-04-16T05:27:56.262Z,14
2023-04-16T05:56:42.860Z,16
2023-04-16T06:25:28.498Z,16
2023-04-16T06:53:57.576Z,16
2023-04-16T07:22:41.025Z,19
2023-04-16T07:51:22.789Z,22
2023-04-16T08:20:02.331Z,19
2023-04-16T08:48:41.686Z,19
2023-04-16T09:17:15.515Z,19
2023-04-16T09:45:39.834Z,19
2023-04-16T10:14:18.351Z,20
2023-04-16T10:42:49.910Z,22
2023-04-16T11:11:24.577Z,20
2023-04-16T11:39:52.355Z,20
2023-04-16T12:11:27.489Z,19
2023-04-16T13:10:42.498Z,19
2023-04-16T13:38:52.756Z,19
2023-04-16T14:07:24.910Z,20
2023-04-16T14:35:56.919Z,22
2023-04-16T15:04:32.289Z,20
2023-04-16T15:32:57.439Z,22
2023-04-16T16:01:25.275Z,20
2023-04-16T16:29:39.557Z,16
2023-04-16T16:58:09.430Z,20
2023-04-16T17:26:43.307Z,24
2023-04-16T17:55:13.302Z,19
2023-04-16T18:23:57.093Z,19
2023-04-16T18:52:25.402Z,19
2023-04-16T19:20:57.570Z,19
2023-04-16T19:49:54.259Z,25
2023-04-16T20:18:39.178Z,25
2023-04-16T20:47:24.423Z,24
2023-04-16T21:16:21.806Z,23
2023-04-16T21:45:20.233Z,25
2023-04-16T22:14:01.284Z,25
2023-04-16T22:42:48.778Z,25
2023-04-16T23:11:32.778Z,28
2023-04-16T23:40:33.059Z,28
